createdAt,value
2019-04-30T00:05:21.196Z,7.17
2019-04-30T00:11:27.008Z,10.70
2019-04-30T00:17:31.624Z,10.35
2019-04-30T00:23:35.967Z,9.25
2019-04-30T00:29:38.775Z,9.75
2019-04-30T00:35:41.436Z,8.25
2019-04-30T00:41:47.360Z,7.70
2019-04-30T00:47:51.010Z,8.48
2019-04-30T00:53:55.643Z,9.30
2019-04-30T00:59:59.247Z,9.80
2019-04-30T01:06:05.373Z,10.38
2019-04-30T01:12:17.418Z,10.45
2019-04-30T01:18:19.308Z,8.98
2019-04-30T01:24:28.374Z,9.00
2019-04-30T01:30:30.283Z,10.45
2019-04-30T01:36:35.800Z,10.88
2019-04-30T01:42:48.490Z,10.72
2019-04-30T01:48:54.797Z,11.70
2019-04-30T01:54:58.823Z,11.48
2019-04-30T02:01:03.108Z,11.15
2019-04-30T02:07:09.540Z,12.03
2019-04-30T02:13:15.146Z,12.25
2019-04-30T02:25:40.898Z,13.72
2019-04-30T02:31:46.177Z,12.90
2019-04-30T02:38:09.852Z,11.88
2019-04-30T02:44:15.605Z,12.90
2019-04-30T02:50:22.451Z,11.40
2019-04-30T02:56:27.788Z,10.10
2019-04-30T03:02:35.912Z,9.25
2019-04-30T03:08:42.406Z,8.13
2019-04-30T03:14:46.979Z,7.60
2019-04-30T03:20:59.801Z,7.75
2019-04-30T03:27:02.540Z,8.65
2019-04-30T03:33:13.049Z,8.90
2019-04-30T03:39:16.335Z,8.65
2019-04-30T03:45:21.589Z,9.75
2019-04-30T03:51:25.188Z,9.83
2019-04-30T03:57:30.358Z,7.75
2019-04-30T04:03:34.616Z,8.90
2019-04-30T04:09:41.808Z,9.35
2019-04-30T04:15:49.728Z,11.00
2019-04-30T04:21:52.143Z,9.90
2019-04-30T04:27:54.828Z,9.88
2019-04-30T04:33:59.771Z,10.30
2019-04-30T04:40:01.505Z,9.10
2019-04-30T04:46:10.149Z,11.38
2019-04-30T04:52:14.632Z,11.33
2019-04-30T04:58:21.629Z,10.18
2019-04-30T05:04:24.433Z,8.83
2019-04-30T05:10:31.146Z,7.83
2019-04-30T05:16:39.572Z,7.20
2019-04-30T05:22:43.705Z,5.25
2019-04-30T05:28:52.918Z,5.65
2019-04-30T05:34:56.260Z,6.55
2019-04-30T05:40:59.651Z,6.37
2019-04-30T05:47:03.695Z,4.65
2019-04-30T05:53:09.042Z,5.42
2019-04-30T05:59:20.477Z,5.45
2019-04-30T06:05:22.664Z,5.53
2019-04-30T06:11:44.432Z,4.92
2019-04-30T06:17:59.973Z,5.17
2019-04-30T06:23:53.570Z,4.80
2019-04-30T06:29:59.275Z,4.47
2019-04-30T06:42:30.979Z,5.00
2019-04-30T06:48:42.295Z,5.45
2019-04-30T06:54:50.009Z,5.17
2019-04-30T07:00:56.125Z,5.20
2019-04-30T07:06:59.530Z,5.45
2019-04-30T07:13:09.211Z,4.87
2019-04-30T07:19:29.112Z,5.40
2019-04-30T07:25:20.082Z,5.15
2019-04-30T07:31:30.938Z,4.37
2019-04-30T07:37:35.317Z,4.67
2019-04-30T07:43:44.734Z,5.35
2019-04-30T07:49:54.897Z,4.87
2019-04-30T07:55:54.308Z,5.28
2019-04-30T08:02:10.044Z,5.22
2019-04-30T08:08:20.294Z,5.45
2019-04-30T08:14:11.553Z,4.97
2019-04-30T08:20:20.580Z,5.80
2019-04-30T08:26:28.599Z,5.42
2019-04-30T08:32:32.854Z,12.18
2019-04-30T08:38:39.480Z,6.75
2019-04-30T08:44:44.044Z,5.80
2019-04-30T08:50:46.585Z,7.78
2019-04-30T08:56:50.452Z,14.15
2019-04-30T09:03:03.476Z,15.00
2019-04-30T09:09:15.246Z,12.65
2019-04-30T09:15:18.898Z,10.70
2019-04-30T09:21:25.037Z,11.68
2019-04-30T09:27:29.418Z,9.30
2019-04-30T09:33:41.288Z,9.83
2019-04-30T09:39:49.248Z,9.08
2019-04-30T09:45:59.297Z,10.25
2019-04-30T09:52:02.564Z,11.10
2019-04-30T09:58:16.748Z,10.58
2019-04-30T10:04:12.644Z,8.23
2019-04-30T10:10:19.067Z,8.93
2019-04-30T10:16:23.268Z,9.75
2019-04-30T10:22:33.987Z,12.37
2019-04-30T10:28:42.237Z,10.05
2019-04-30T10:34:47.664Z,11.38
2019-04-30T10:40:50.794Z,11.08
2019-04-30T10:53:16.023Z,10.32
2019-04-30T10:59:18.563Z,13.75
2019-04-30T11:05:21.471Z,17.87
2019-04-30T11:11:25.688Z,19.23
2019-04-30T11:17:30.139Z,21.48
2019-04-30T11:23:36.648Z,27.70
2019-04-30T11:29:39.946Z,37.17
2019-04-30T11:35:42.509Z,28.45
2019-04-30T11:41:47.195Z,29.37
2019-04-30T11:47:53.468Z,26.90
2019-04-30T11:53:54.601Z,30.82
2019-04-30T11:59:59.921Z,29.25
2019-04-30T12:06:05.991Z,28.70
2019-04-30T12:12:09.121Z,28.20
2019-04-30T12:18:15.942Z,30.65
2019-04-30T12:24:33.832Z,29.92
2019-04-30T12:30:32.389Z,33.53
2019-04-30T12:36:38.704Z,29.57
2019-04-30T12:42:42.081Z,30.65
2019-04-30T12:48:49.695Z,29.10
2019-04-30T12:54:59.758Z,26.25
2019-04-30T13:01:02.553Z,26.35
2019-04-30T13:07:10.018Z,25.90
2019-04-30T13:13:13.567Z,26.57
2019-04-30T13:19:16.513Z,27.27
2019-04-30T13:25:29.948Z,26.07
2019-04-30T13:31:22.916Z,23.12
2019-04-30T13:37:28.957Z,17.35
2019-04-30T13:43:50.364Z,14.93
2019-04-30T13:49:54.583Z,12.40
2019-04-30T13:56:02.169Z,12.20
2019-04-30T14:02:06.125Z,11.43
2019-04-30T14:08:23.503Z,10.60
2019-04-30T14:14:29.591Z,10.28
2019-04-30T14:20:32.244Z,14.45
2019-04-30T14:26:34.716Z,11.95
2019-04-30T14:32:36.908Z,11.78
2019-04-30T14:38:40.674Z,11.88
2019-04-30T14:44:44.234Z,12.05
2019-04-30T14:50:48.909Z,15.15
2019-04-30T14:56:56.793Z,14.58
2019-04-30T15:03:04.064Z,15.35
2019-04-30T15:09:07.323Z,19.52
2019-04-30T15:15:12.533Z,21.48
2019-04-30T15:21:17.646Z,21.20
2019-04-30T15:27:20.030Z,23.00
2019-04-30T15:33:24.305Z,21.80
2019-04-30T15:39:39.975Z,19.98
2019-04-30T15:45:43.544Z,30.57
2019-04-30T15:51:47.146Z,23.27
2019-04-30T15:58:09.320Z,27.65
2019-04-30T16:04:14.052Z,24.65
2019-04-30T16:10:32.021Z,19.52
2019-04-30T16:16:36.342Z,26.35
2019-04-30T16:22:39.179Z,20.15
2019-04-30T16:28:42.742Z,18.95
2019-04-30T16:34:45.214Z,21.60
2019-04-30T16:40:48.844Z,25.65
2019-04-30T16:46:51.263Z,21.90
2019-04-30T16:52:53.496Z,19.65
2019-04-30T16:58:58.852Z,15.25
2019-04-30T17:05:03.090Z,17.60
2019-04-30T17:11:09.462Z,15.48
2019-04-30T17:17:11.896Z,13.88
2019-04-30T17:23:14.291Z,12.68
2019-04-30T17:29:16.675Z,13.03
2019-04-30T17:35:19.901Z,12.00
2019-04-30T17:41:22.725Z,11.65
2019-04-30T17:47:25.912Z,10.40
2019-04-30T17:53:28.887Z,11.63
2019-04-30T17:59:31.311Z,11.88
2019-04-30T18:05:35.544Z,11.97
2019-04-30T18:11:39.618Z,15.50
2019-04-30T18:17:45.435Z,17.65
2019-04-30T18:23:50.570Z,15.72
2019-04-30T18:29:53.708Z,16.93
2019-04-30T18:35:56.636Z,20.55
2019-04-30T18:42:00.298Z,18.23
2019-04-30T18:48:03.204Z,22.22
2019-04-30T18:54:06.278Z,25.68
2019-04-30T19:00:17.035Z,21.70
2019-04-30T19:06:23.875Z,22.60
2019-04-30T19:12:30.669Z,21.25
2019-04-30T19:18:36.304Z,23.85
2019-04-30T19:24:38.904Z,21.93
2019-04-30T19:30:41.511Z,23.47
2019-04-30T19:36:43.966Z,23.65
2019-04-30T19:42:51.330Z,21.75
2019-04-30T19:48:55.274Z,22.87
2019-04-30T19:54:58.704Z,21.07
2019-04-30T20:01:01.386Z,23.47
2019-04-30T20:07:04.949Z,20.50
2019-04-30T20:13:07.851Z,19.48
2019-04-30T20:19:10.274Z,19.75
2019-04-30T20:25:32.289Z,20.32
2019-04-30T20:31:36.029Z,21.80
2019-04-30T20:37:57.170Z,21.93
2019-04-30T20:44:00.034Z,20.97
2019-04-30T20:50:03.321Z,19.57
2019-04-30T20:56:06.506Z,19.75
2019-04-30T21:02:08.977Z,20.08
2019-04-30T21:08:13.132Z,21.17
2019-04-30T21:14:15.791Z,20.95
2019-04-30T21:20:19.375Z,23.83
2019-04-30T21:26:22.356Z,23.67
2019-04-30T21:32:29.061Z,23.15
2019-04-30T21:38:32.549Z,22.40
2019-04-30T21:44:35.011Z,26.10
2019-04-30T21:50:39.832Z,25.65
2019-04-30T21:56:42.808Z,23.42
2019-04-30T22:02:45.858Z,22.35
2019-04-30T22:08:49.267Z,19.73
2019-04-30T22:14:51.837Z,23.73
2019-04-30T22:21:05.004Z,24.15
2019-04-30T22:27:10.476Z,22.77
2019-04-30T22:33:13.012Z,23.62
2019-04-30T22:39:19.833Z,23.75
2019-04-30T22:45:29.376Z,22.48
2019-04-30T22:51:32.370Z,21.27
2019-04-30T23:04:09.359Z,21.97
2019-04-30T23:10:13.145Z,20.92
2019-04-30T23:16:15.670Z,20.10
2019-04-30T23:22:19.119Z,24.30
2019-04-30T23:28:21.464Z,25.43
2019-04-30T23:34:26.121Z,22.52
2019-04-30T23:40:42.691Z,21.70
2019-04-30T23:46:45.810Z,20.10
2019-04-30T23:52:48.238Z,22.27
2019-04-30T23:58:50.632Z,22.58
